Time;durP1;ratioP1;P1;durP2;ratioP2;P2;SDS_P1;SDS_P2;PMS_P1;PMS_P2;Temp;Humidity;BMP_temperature;BMP_pressure;BME280_temperature;BME280_humidity;BME280_pressure;Samples;Min_cycle;Max_cycle;Signal;HPM_P1;HPM_P2
2022/04/14 00:01:42;;;;;;;45.73;25.13;;;9.10;89.60;;;;;;5026654;28;20262;-63
2022/04/14 00:04:35;;;;;;;46.30;24.20;;;9.10;89.70;;;;;;5029689;28;20235;-63
2022/04/14 00:07:25;;;;;;;46.87;24.80;;;9.20;89.60;;;;;;5035855;28;21007;-61
2022/04/14 00:10:14;;;;;;;44.17;24.07;;;9.10;89.90;;;;;;5029962;28;20225;-63
2022/04/14 00:13:03;;;;;;;47.40;24.33;;;9.10;90.10;;;;;;5027302;28;20231;-63
2022/04/14 00:15:52;;;;;;;43.07;24.80;;;9.10;90.20;;;;;;5030471;28;20267;-64
2022/04/14 00:18:41;;;;;;;43.87;23.93;;;9.10;90.40;;;;;;5033221;28;20306;-62
2022/04/14 00:21:29;;;;;;;42.13;23.67;;;9.00;90.30;;;;;;5030346;28;20743;-63
2022/04/14 00:24:20;;;;;;;45.00;25.07;;;9.00;90.50;;;;;;5021552;28;20393;-63
2022/04/14 00:27:08;;;;;;;45.40;24.07;;;9.00;90.80;;;;;;5031329;28;20217;-63
2022/04/14 00:29:57;;;;;;;45.13;25.17;;;8.90;91.00;;;;;;5017083;28;20312;-59
2022/04/14 00:32:46;;;;;;;49.23;25.17;;;8.90;91.30;;;;;;5031290;28;20236;-61
2022/04/14 00:35:34;;;;;;;48.37;25.07;;;8.80;91.50;;;;;;5035465;28;20213;-62
2022/04/14 00:38:23;;;;;;;44.33;25.60;;;8.80;91.60;;;;;;5031900;28;20250;-62
2022/04/14 00:41:13;;;;;;;49.53;25.53;;;8.70;91.90;;;;;;5019034;28;20238;-62
2022/04/14 00:44:01;;;;;;;41.80;23.70;;;8.70;92.10;;;;;;5015978;28;20235;-63
2022/04/14 00:46:50;;;;;;;42.50;23.33;;;8.60;92.20;;;;;;5029413;28;20250;-63
2022/04/14 00:49:39;;;;;;;42.37;23.77;;;8.60;92.00;;;;;;5036255;28;20230;-64
2022/04/14 00:52:28;;;;;;;42.50;23.47;;;8.70;91.90;;;;;;5028907;28;20221;-63
2022/04/14 00:55:17;;;;;;;42.43;23.03;;;8.70;91.90;;;;;;5035110;28;20656;-66
2022/04/14 00:58:07;;;;;;;41.77;22.03;;;8.70;91.70;;;;;;5043519;28;20222;-65
2022/04/14 01:00:56;;;;;;;43.97;22.53;;;8.60;91.70;;;;;;5031903;28;20902;-63
2022/04/14 01:03:46;;;;;;;38.13;22.10;;;8.60;91.60;;;;;;5019037;28;20300;-63
2022/04/14 01:06:37;;;;;;;42.80;22.20;;;8.60;91.60;;;;;;5018968;28;20232;-62
2022/04/14 01:09:28;;;;;;;35.40;21.07;;;8.60;91.50;;;;;;5033555;28;20355;-62
2022/04/14 01:12:17;;;;;;;38.80;21.00;;;8.60;91.60;;;;;;5029804;28;20215;-63
2022/04/14 01:15:13;;;;;;;37.93;20.87;;;8.60;91.20;;;;;;5013270;28;20230;-63
2022/04/14 01:18:02;;;;;;;36.20;20.73;;;8.40;91.50;;;;;;5030727;28;20215;-63
2022/04/14 01:20:51;;;;;;;36.83;19.67;;;8.40;91.40;;;;;;5028733;28;20253;-63
2022/04/14 01:23:44;;;;;;;40.17;21.30;;;8.40;91.40;;;;;;5043189;28;20227;-64
2022/04/14 01:26:36;;;;;;;34.73;19.40;;;8.50;91.40;;;;;;5026132;28;20841;-63
2022/04/14 01:29:26;;;;;;;37.90;20.17;;;8.50;91.20;;;;;;5031859;28;20749;-64
2022/04/14 01:32:15;;;;;;;37.53;20.50;;;8.50;91.20;;;;;;5034238;28;20219;-61
2022/04/14 01:35:06;;;;;;;36.10;20.03;;;8.50;91.30;;;;;;5039964;28;20227;-62
2022/04/14 01:37:54;;;;;;;37.90;20.33;;;8.50;91.30;;;;;;5022437;28;20298;-61
2022/04/14 01:40:45;;;;;;;37.70;20.00;;;8.50;91.20;;;;;;5042670;28;20702;-63
2022/04/14 01:43:33;;;;;;;35.07;19.57;;;8.50;91.40;;;;;;5031492;28;20217;-63
2022/04/14 01:46:22;;;;;;;33.20;19.87;;;8.50;91.30;;;;;;5022367;28;20246;-62
2022/04/14 01:49:11;;;;;;;36.67;19.93;;;8.40;91.40;;;;;;5031734;28;20299;-65
2022/04/14 01:52:00;;;;;;;35.90;19.03;;;8.40;91.70;;;;;;5047464;28;20274;-62
2022/04/14 01:54:49;;;;;;;39.07;20.20;;;8.30;92.20;;;;;;5033192;28;20247;-63
2022/04/14 01:57:38;;;;;;;36.30;19.93;;;8.40;92.00;;;;;;5036583;28;20229;-63
2022/04/14 02:00:27;;;;;;;35.17;19.50;;;8.30;92.00;;;;;;5033491;28;20231;-63
2022/04/14 02:03:16;;;;;;;33.90;18.10;;;8.30;92.10;;;;;;5036459;28;20228;-65
2022/04/14 02:06:04;;;;;;;38.37;19.27;;;8.40;91.80;;;;;;5033260;28;20233;-64
2022/04/14 02:08:53;;;;;;;28.57;17.77;;;8.40;91.80;;;;;;5019272;28;20265;-63
2022/04/14 02:11:42;;;;;;;30.30;18.77;;;8.40;91.80;;;;;;5034840;28;20299;-63
2022/04/14 02:14:35;;;;;;;28.10;17.70;;;8.40;91.90;;;;;;5034597;28;20220;-62
2022/04/14 02:17:24;;;;;;;33.53;19.33;;;8.40;92.10;;;;;;5017555;28;20883;-64
2022/04/14 02:20:12;;;;;;;31.30;18.50;;;8.30;92.20;;;;;;5022666;28;20217;-62
2022/04/14 02:23:01;;;;;;;33.63;18.53;;;8.30;92.50;;;;;;5022925;28;20218;-63
2022/04/14 02:25:51;;;;;;;34.87;19.03;;;8.30;92.80;;;;;;5029864;28;20776;-63
2022/04/14 02:28:40;;;;;;;30.50;18.00;;;8.30;93.00;;;;;;5028838;28;20221;-63
2022/04/14 02:31:30;;;;;;;34.77;19.07;;;8.30;92.90;;;;;;5029175;28;20229;-64
2022/04/14 02:34:19;;;;;;;34.17;19.20;;;8.30;92.70;;;;;;5047449;28;20262;-63
2022/04/14 02:37:07;;;;;;;30.90;18.67;;;8.30;92.90;;;;;;5019583;28;20214;-62
2022/04/14 02:39:56;;;;;;;35.63;18.73;;;8.30;93.00;;;;;;5028658;28;20229;-63
2022/04/14 02:42:46;;;;;;;32.87;19.23;;;8.40;92.80;;;;;;5028608;28;20844;-63
2022/04/14 02:45:35;;;;;;;36.30;19.23;;;8.30;93.10;;;;;;5030505;28;20233;-64
2022/04/14 02:48:25;;;;;;;33.20;18.90;;;8.20;93.20;;;;;;5015019;28;20231;-64
2022/04/14 02:51:14;;;;;;;36.77;19.00;;;8.20;93.40;;;;;;5034519;28;20233;-65
2022/04/14 02:54:02;;;;;;;34.77;19.10;;;8.30;93.30;;;;;;5023720;28;20231;-64
2022/04/14 02:56:51;;;;;;;33.20;19.27;;;8.30;93.20;;;;;;5036868;28;20239;-65
2022/04/14 02:59:39;;;;;;;38.03;19.73;;;8.30;93.30;;;;;;5015465;28;20240;-64
2022/04/14 03:02:28;;;;;;;35.97;20.70;;;8.30;93.50;;;;;;5024297;28;20236;-64
2022/04/14 03:05:19;;;;;;;34.20;20.57;;;8.30;93.40;;;;;;5035370;28;20221;-64
2022/04/14 03:08:08;;;;;;;36.07;20.20;;;8.30;93.60;;;;;;5020041;28;20765;-63
2022/04/14 03:10:56;;;;;;;31.13;18.93;;;8.20;93.70;;;;;;5031120;28;20225;-63
2022/04/14 03:13:45;;;;;;;38.07;20.20;;;8.20;93.80;;;;;;5014489;28;20217;-63
2022/04/14 03:16:33;;;;;;;36.40;20.23;;;8.30;93.80;;;;;;5045835;28;20217;-62
2022/04/14 03:19:22;;;;;;;33.97;20.07;;;8.20;93.90;;;;;;5032012;28;20238;-63
2022/04/14 03:22:12;;;;;;;37.90;21.37;;;8.20;94.10;;;;;;5018505;28;20226;-63
2022/04/14 03:25:03;;;;;;;39.30;20.63;;;8.20;94.10;;;;;;5031821;28;20214;-63
2022/04/14 03:27:52;;;;;;;35.77;19.87;;;8.20;94.40;;;;;;5032483;28;20238;-63
2022/04/14 03:30:40;;;;;;;40.23;21.53;;;8.20;94.50;;;;;;5042739;28;20220;-64
2022/04/14 03:33:30;;;;;;;39.37;21.27;;;8.20;94.60;;;;;;5029162;28;20217;-64
2022/04/14 03:36:19;;;;;;;36.87;20.07;;;8.10;95.00;;;;;;5042072;28;20287;-64
2022/04/14 03:39:13;;;;;;;37.73;21.57;;;8.00;95.40;;;;;;5018610;28;20213;-63
2022/04/14 03:42:01;;;;;;;40.50;22.30;;;8.00;95.90;;;;;;5028843;28;20221;-63
2022/04/14 03:44:50;;;;;;;38.70;22.40;;;7.90;96.20;;;;;;5017454;28;20222;-64
2022/04/14 03:47:39;;;;;;;40.20;22.50;;;7.90;96.60;;;;;;5016728;28;20233;-64
2022/04/14 03:50:27;;;;;;;41.27;21.63;;;7.80;97.10;;;;;;5044588;28;20224;-64
2022/04/14 03:53:17;;;;;;;41.00;22.03;;;7.70;98.00;;;;;;5034181;28;20304;-63
2022/04/14 03:56:07;;;;;;;43.00;22.57;;;7.70;98.60;;;;;;5029359;28;20217;-64
2022/04/14 03:58:55;;;;;;;42.17;22.83;;;7.60;99.20;;;;;;5027694;28;20225;-63
2022/04/14 04:01:44;;;;;;;48.00;23.50;;;7.70;99.50;;;;;;5027114;28;20700;-64
2022/04/14 04:04:33;;;;;;;38.70;21.70;;;7.70;99.80;;;;;;5034873;28;20714;-63
2022/04/14 04:07:22;;;;;;;42.80;22.70;;;7.80;99.90;;;;;;5026507;28;20233;-63
2022/04/14 04:10:10;;;;;;;38.33;22.20;;;7.80;99.90;;;;;;5029495;28;20229;-63
2022/04/14 04:13:00;;;;;;;40.10;21.93;;;7.80;99.80;;;;;;5033930;28;20664;-65
2022/04/14 04:15:50;;;;;;;36.93;21.57;;;7.70;99.90;;;;;;5037061;28;20739;-66
2022/04/14 04:18:38;;;;;;;39.43;20.90;;;7.70;99.90;;;;;;5048646;28;20234;-66
2022/04/14 04:21:29;;;;;;;40.77;21.77;;;7.70;99.90;;;;;;5036826;28;20225;-65
2022/04/14 04:24:17;;;;;;;39.17;21.90;;;7.80;99.90;;;;;;5035953;28;20221;-65
2022/04/14 04:27:06;;;;;;;39.63;22.27;;;7.60;99.90;;;;;;5034045;28;20230;-64
2022/04/14 04:30:00;;;;;;;37.63;21.63;;;7.70;99.90;;;;;;5031611;28;20583;-64
2022/04/14 04:32:49;;;;;;;42.37;22.20;;;7.70;99.90;;;;;;5046257;28;20236;-65
2022/04/14 04:35:37;;;;;;;38.67;21.53;;;7.80;99.90;;;;;;5037538;28;20573;-65
2022/04/14 04:38:26;;;;;;;44.37;22.77;;;7.80;99.90;;;;;;5019425;28;20784;-65
2022/04/14 04:41:14;;;;;;;46.20;22.97;;;7.90;99.90;;;;;;5034174;28;20232;-64
2022/04/14 04:44:04;;;;;;;46.23;21.93;;;8.00;99.90;;;;;;5022322;28;20220;-65
2022/04/14 04:46:54;;;;;;;42.40;21.43;;;8.00;99.90;;;;;;5031736;28;20236;-63
2022/04/14 04:49:43;;;;;;;42.37;22.73;;;8.00;99.90;;;;;;5034212;28;20228;-64
2022/04/14 04:52:32;;;;;;;36.67;20.53;;;8.10;99.90;;;;;;5024105;28;20238;-64
2022/04/14 04:55:20;;;;;;;38.37;21.13;;;8.00;99.90;;;;;;5036564;28;20241;-62
2022/04/14 04:58:09;;;;;;;37.40;20.83;;;8.10;99.90;;;;;;5021211;28;20838;-63
2022/04/14 05:00:58;;;;;;;34.17;20.60;;;8.10;99.90;;;;;;5022581;28;20214;-64
2022/04/14 05:03:48;;;;;;;42.03;21.93;;;8.10;99.90;;;;;;5030134;28;20720;-64
2022/04/14 05:06:36;;;;;;;35.90;21.53;;;8.20;99.90;;;;;;5034272;28;20241;-64
2022/04/14 05:09:25;;;;;;;38.53;20.07;;;8.10;99.90;;;;;;5024334;28;20230;-63
2022/04/14 05:12:13;;;;;;;36.60;20.57;;;8.20;99.90;;;;;;5037801;28;20218;-63
2022/04/14 05:15:02;;;;;;;36.13;20.40;;;8.30;99.90;;;;;;5035822;28;20229;-63
2022/04/14 05:17:51;;;;;;;35.83;20.70;;;8.20;99.90;;;;;;5038037;28;20727;-63
2022/04/14 05:20:42;;;;;;;38.83;21.73;;;8.10;99.90;;;;;;5023670;28;20251;-63
2022/04/14 05:23:30;;;;;;;38.00;20.60;;;8.10;99.90;;;;;;5034324;28;20243;-63
2022/04/14 05:26:19;;;;;;;34.83;21.60;;;8.30;99.90;;;;;;5039731;28;20232;-63
2022/04/14 05:29:09;;;;;;;34.10;20.73;;;8.50;99.90;;;;;;5029131;28;20644;-64
2022/04/14 05:31:58;;;;;;;34.27;21.67;;;8.50;99.90;;;;;;5032650;28;20232;-64
2022/04/14 05:34:46;;;;;;;37.70;21.20;;;8.60;99.90;;;;;;5037275;28;20224;-64
2022/04/14 05:37:37;;;;;;;38.33;20.70;;;8.90;99.90;;;;;;5018404;28;20215;-63
2022/04/14 05:40:25;;;;;;;41.07;20.90;;;9.10;99.90;;;;;;5035064;28;20228;-64
2022/04/14 05:43:18;;;;;;;36.45;21.08;;;9.40;99.40;;;;;;5035098;28;20232;-66
2022/04/14 05:46:07;;;;;;;38.47;21.30;;;9.40;98.90;;;;;;5035324;28;20229;-63
2022/04/14 05:48:56;;;;;;;39.03;20.85;;;9.40;98.70;;;;;;5035964;28;20275;-63
2022/04/14 05:51:44;;;;;;;36.60;20.58;;;9.50;98.60;;;;;;5047900;28;20225;-65
2022/04/14 05:54:34;;;;;;;33.63;20.57;;;9.40;98.90;;;;;;5019692;28;20220;-65
2022/04/14 05:57:23;;;;;;;39.42;22.00;;;9.40;98.70;;;;;;5017490;28;20231;-64
2022/04/14 06:00:14;;;;;;;35.40;20.48;;;9.50;98.60;;;;;;5029331;28;20222;-63
2022/04/14 06:03:03;;;;;;;38.42;20.50;;;9.80;98.30;;;;;;5028357;28;20228;-62
2022/04/14 06:05:53;;;;;;;33.47;19.88;;;10.00;97.20;;;;;;5032744;28;20253;-64
2022/04/14 06:08:43;;;;;;;38.20;19.80;;;10.50;96.10;;;;;;5022523;28;20233;-64
2022/04/14 06:11:33;;;;;;;32.42;20.13;;;10.50;95.10;;;;;;5035710;28;20236;-63
2022/04/14 06:14:22;;;;;;;34.35;20.83;;;10.80;94.60;;;;;;5037617;28;20838;-65
2022/04/14 06:17:10;;;;;;;36.10;18.75;;;10.90;93.70;;;;;;5034495;28;20241;-65
2022/04/14 06:19:59;;;;;;;34.45;18.80;;;10.90;93.50;;;;;;5032255;28;20221;-63
2022/04/14 06:22:48;;;;;;;30.27;17.88;;;10.90;93.10;;;;;;5035986;28;20719;-62
2022/04/14 06:25:36;;;;;;;34.75;18.13;;;10.90;92.90;;;;;;5044050;28;20610;-62
2022/04/14 06:28:26;;;;;;;34.00;17.95;;;11.00;92.80;;;;;;5045197;28;20222;-65
2022/04/14 06:31:15;;;;;;;38.28;17.92;;;11.10;92.60;;;;;;5023589;28;20227;-69
2022/04/14 06:34:05;;;;;;;34.40;17.80;;;11.10;92.30;;;;;;5034472;28;20225;-61
2022/04/14 06:36:53;;;;;;;31.55;16.75;;;11.30;91.80;;;;;;5041846;28;20224;-60
2022/04/14 06:39:42;;;;;;;28.65;17.45;;;11.40;91.50;;;;;;5026901;28;20233;-63
2022/04/14 06:42:32;;;;;;;30.58;16.17;;;11.60;91.20;;;;;;5037404;28;20221;-61
2022/04/14 06:45:23;;;;;;;27.83;16.13;;;11.80;90.50;;;;;;5036149;28;20225;-61
2022/04/14 06:48:11;;;;;;;28.23;16.20;;;11.90;90.00;;;;;;5029571;28;20241;-61
2022/04/14 06:51:00;;;;;;;28.33;15.20;;;12.10;89.50;;;;;;5027107;28;20229;-62
2022/04/14 06:53:49;;;;;;;30.58;14.75;;;12.30;87.30;;;;;;5022776;28;20304;-62
2022/04/14 06:56:38;;;;;;;26.95;15.88;;;12.60;86.40;;;;;;5034788;28;20236;-61
2022/04/14 06:59:27;;;;;;;26.77;15.35;;;12.90;84.30;;;;;;5037838;28;20226;-61
2022/04/14 07:02:17;;;;;;;25.92;15.20;;;13.90;81.00;;;;;;5030032;28;20222;-62
2022/04/14 07:05:07;;;;;;;24.23;13.98;;;14.60;78.30;;;;;;5016502;28;20372;-62
2022/04/14 07:07:55;;;;;;;24.50;13.85;;;15.20;76.30;;;;;;5008258;28;20217;-62
2022/04/14 07:10:48;;;;;;;27.73;14.95;;;15.30;72.80;;;;;;5005542;28;20225;-63
2022/04/14 07:13:37;;;;;;;27.77;14.15;;;16.50;71.30;;;;;;5027061;28;20229;-62
2022/04/14 07:16:26;;;;;;;22.60;13.25;;;16.80;67.80;;;;;;4997370;28;20226;-61
2022/04/14 07:19:16;;;;;;;21.52;13.10;;;17.00;66.10;;;;;;5006425;28;20676;-63
2022/04/14 07:22:05;;;;;;;25.92;13.73;;;17.30;64.70;;;;;;5019375;28;20224;-63
2022/04/14 07:24:54;;;;;;;19.80;12.10;;;17.70;62.80;;;;;;5019705;28;20276;-63
2022/04/14 07:27:43;;;;;;;18.23;12.82;;;18.50;61.70;;;;;;5012859;28;20225;-64
2022/04/14 07:30:36;;;;;;;20.77;11.73;;;18.70;60.90;;;;;;5017672;28;20230;-61
2022/04/14 07:33:25;;;;;;;17.85;11.27;;;18.90;59.60;;;;;;5002246;28;20221;-62
2022/04/14 07:36:19;;;;;;;18.95;11.57;;;19.30;57.80;;;;;;5006960;28;20215;-61
2022/04/14 07:39:23;;;;;;;19.73;11.70;;;19.80;57.90;;;;;;5017117;28;20250;-59
2022/04/14 07:42:11;;;;;;;17.25;11.02;;;20.20;56.50;;;;;;5013132;28;20229;-60
2022/04/14 07:45:00;;;;;;;16.70;10.20;;;20.50;55.00;;;;;;5018101;28;20298;-61
2022/04/14 07:47:56;;;;;;;20.52;11.40;;;20.10;55.00;;;;;;5016311;28;20557;-62
2022/04/14 07:50:45;;;;;;;17.17;11.23;;;20.60;54.60;;;;;;5017215;28;20225;-60
2022/04/14 07:53:37;;;;;;;17.48;10.32;;;21.00;53.20;;;;;;5016794;28;20229;-62
2022/04/14 07:56:25;;;;;;;16.88;9.23;;;21.50;52.40;;;;;;5014130;28;20224;-60
2022/04/14 07:59:14;;;;;;;16.58;10.43;;;21.50;51.60;;;;;;5011368;28;20218;-61
2022/04/14 08:02:03;;;;;;;16.75;9.93;;;22.80;51.30;;;;;;5023042;28;20725;-61
2022/04/14 08:04:51;;;;;;;16.27;10.75;;;23.50;50.00;;;;;;5029165;28;20387;-59
2022/04/14 08:07:40;;;;;;;16.63;10.00;;;22.30;50.50;;;;;;5034528;28;20309;-62
2022/04/14 08:10:31;;;;;;;15.15;9.00;;;22.10;50.20;;;;;;5031526;28;20568;-63
2022/04/14 08:13:19;;;;;;;17.73;8.55;;;22.00;50.50;;;;;;5028584;28;20220;-61
2022/04/14 08:16:09;;;;;;;15.07;8.10;;;22.90;49.30;;;;;;5030145;28;20228;-62
2022/04/14 08:18:58;;;;;;;12.50;8.35;;;23.20;47.60;;;;;;5031797;28;20228;-63
2022/04/14 08:21:47;;;;;;;12.27;7.10;;;25.20;46.80;;;;;;5038721;28;20226;-62
2022/04/14 08:24:36;;;;;;;12.32;7.70;;;26.10;44.30;;;;;;5034040;28;20233;-63
2022/04/14 08:27:26;;;;;;;12.68;8.05;;;26.80;44.10;;;;;;5033477;28;20217;-61
2022/04/14 08:30:15;;;;;;;16.05;8.25;;;27.40;42.40;;;;;;5027634;28;20526;-62
2022/04/14 08:33:06;;;;;;;14.27;8.30;;;28.20;41.80;;;;;;5034957;28;20240;-61
2022/04/14 08:35:55;;;;;;;11.45;7.03;;;28.70;40.60;;;;;;5034753;28;20221;-64
2022/04/14 08:38:46;;;;;;;11.05;6.70;;;28.40;38.80;;;;;;5028744;28;20233;-61
2022/04/14 08:41:37;;;;;;;9.27;6.13;;;28.90;38.70;;;;;;5035047;28;20220;-61
2022/04/14 08:44:32;;;;;;;8.68;6.35;;;28.20;37.50;;;;;;5034681;28;20230;-62
2022/04/14 08:47:22;;;;;;;9.57;6.20;;;28.40;37.60;;;;;;5029019;28;20224;-63
2022/04/14 08:50:13;;;;;;;7.18;5.05;;;29.10;36.60;;;;;;5032961;28;20241;-65
2022/04/14 08:53:05;;;;;;;9.48;5.93;;;29.80;35.70;;;;;;5023926;28;20301;-64
2022/04/14 08:55:56;;;;;;;8.23;5.82;;;30.20;35.00;;;;;;5037210;28;20235;-64
2022/04/14 08:58:48;;;;;;;11.70;5.60;;;30.70;35.00;;;;;;5020078;28;20216;-63
2022/04/14 09:01:39;;;;;;;11.73;5.82;;;30.50;34.90;;;;;;5019823;28;20221;-63
2022/04/14 09:04:28;;;;;;;11.52;6.10;;;31.00;34.00;;;;;;5011245;28;20742;-64
2022/04/14 09:07:17;;;;;;;8.73;5.80;;;31.10;34.80;;;;;;5035241;28;20995;-63
2022/04/14 09:10:07;;;;;;;10.48;6.00;;;30.60;33.40;;;;;;5043629;28;20812;-63
2022/04/14 09:12:57;;;;;;;9.32;6.40;;;30.40;33.10;;;;;;5018304;28;20240;-62
2022/04/14 09:15:46;;;;;;;10.85;5.82;;;30.10;34.00;;;;;;5032327;28;20227;-62
2022/04/14 09:18:36;;;;;;;10.55;6.13;;;30.70;34.00;;;;;;5032127;28;20325;-63
2022/04/14 09:21:25;;;;;;;18.95;6.30;;;27.10;34.90;;;;;;5019100;28;20239;-60
2022/04/14 09:24:14;;;;;;;9.57;6.05;;;24.20;38.00;;;;;;5034273;28;20351;-61
2022/04/14 09:27:02;;;;;;;9.80;6.10;;;24.10;39.30;;;;;;5033248;28;20225;-62
2022/04/14 09:29:52;;;;;;;10.05;5.72;;;24.50;39.00;;;;;;5034405;28;20232;-63
2022/04/14 09:32:43;;;;;;;9.30;5.60;;;26.10;37.80;;;;;;5041429;28;20228;-63
2022/04/14 09:35:37;;;;;;;11.55;6.13;;;28.20;36.70;;;;;;5053201;28;20217;-61
2022/04/14 09:38:26;;;;;;;6.93;5.32;;;28.70;35.60;;;;;;5030514;28;20390;-63
2022/04/14 09:41:31;;;;;;;9.52;5.45;;;28.40;35.60;;;;;;5019295;28;20226;-64
2022/04/14 09:44:19;;;;;;;8.32;5.10;;;28.10;35.40;;;;;;5035913;28;20221;-61
2022/04/14 09:47:08;;;;;;;10.00;5.30;;;28.80;34.30;;;;;;5034361;28;20579;-62
2022/04/14 09:49:57;;;;;;;7.97;5.43;;;28.70;34.20;;;;;;5034090;28;20228;-64
2022/04/14 09:53:06;;;;;;;8.80;5.82;;;28.90;34.10;;;;;;5051169;28;20232;-62
2022/04/14 09:55:58;;;;;;;9.85;5.93;;;29.20;34.30;;;;;;5032411;28;20218;-63
2022/04/14 09:58:49;;;;;;;7.88;4.90;;;29.50;35.00;;;;;;5041415;28;20220;-64
2022/04/14 10:01:38;;;;;;;11.02;5.30;;;27.50;33.70;;;;;;5040217;28;20256;-62
2022/04/14 10:04:32;;;;;;;11.20;5.60;;;27.10;33.90;;;;;;5029395;28;21061;-65
2022/04/14 10:07:21;;;;;;;6.72;5.10;;;26.40;34.70;;;;;;5032097;28;20409;-63
2022/04/14 10:10:22;;;;;;;8.40;5.68;;;25.90;35.60;;;;;;5025820;28;20231;-60
2022/04/14 10:13:12;;;;;;;9.15;5.70;;;25.60;35.30;;;;;;5052129;28;20216;-61
2022/04/14 10:16:01;;;;;;;9.95;5.53;;;25.20;36.20;;;;;;5039318;28;20394;-69
2022/04/14 10:18:52;;;;;;;9.75;5.15;;;24.10;37.20;;;;;;5037298;28;20270;-64
2022/04/14 10:21:43;;;;;;;8.63;5.28;;;23.50;37.40;;;;;;5058117;28;20342;-63
2022/04/14 10:24:35;;;;;;;11.70;5.65;;;22.90;37.60;;;;;;5043014;28;20225;-69
2022/04/14 10:27:26;;;;;;;10.20;5.30;;;22.50;38.60;;;;;;5040952;28;20672;-65
2022/04/14 10:30:19;;;;;;;8.63;5.85;;;22.30;39.50;;;;;;5038407;28;20267;-63
2022/04/14 10:33:11;;;;;;;8.20;4.60;;;22.30;40.00;;;;;;5040744;28;20309;-62
2022/04/14 10:35:59;;;;;;;9.73;4.65;;;22.10;39.50;;;;;;5026798;28;20283;-64
2022/04/14 10:38:50;;;;;;;8.25;4.80;;;22.10;39.00;;;;;;5031911;28;20240;-65
2022/04/14 10:41:42;;;;;;;7.40;4.65;;;22.00;39.30;;;;;;5049921;28;20233;-64
2022/04/14 10:44:47;;;;;;;7.53;4.45;;;22.00;40.40;;;;;;5031464;28;20629;-65
2022/04/14 10:47:57;;;;;;;5.53;3.70;;;22.00;39.30;;;;;;5037447;28;20715;-64
2022/04/14 10:50:46;;;;;;;9.80;4.00;;;22.00;37.60;;;;;;5030513;28;20325;-64
2022/04/14 10:53:48;;;;;;;6.50;4.45;;;22.10;37.30;;;;;;5031730;28;20221;-64
2022/04/14 10:56:49;;;;;;;6.72;3.60;;;22.50;38.20;;;;;;5047466;28;20587;-62
2022/04/14 10:59:49;;;;;;;6.63;3.88;;;22.80;36.80;;;;;;5038003;28;20370;-64
2022/04/14 11:03:02;;;;;;;8.10;4.90;;;23.90;36.30;;;;;;5034167;28;20228;-63
2022/04/14 11:05:51;;;;;;;6.85;4.68;;;25.70;35.40;;;;;;5045315;28;20250;-63
2022/04/14 11:08:47;;;;;;;7.03;4.75;;;28.00;34.40;;;;;;5052218;28;20599;-64
2022/04/14 11:11:59;;;;;;;10.48;5.00;;;28.70;32.40;;;;;;5031283;28;20240;-64
2022/04/14 11:14:53;;;;;;;7.15;4.72;;;29.00;32.70;;;;;;5018798;28;20715;-63
2022/04/14 11:17:52;;;;;;;6.80;4.85;;;29.60;32.20;;;;;;5034199;28;20351;-62
2022/04/14 11:20:56;;;;;;;6.57;4.53;;;27.50;31.80;;;;;;5036276;28;20366;-61
2022/04/14 11:23:45;;;;;;;5.72;4.57;;;25.50;32.60;;;;;;5035828;28;20296;-62
2022/04/14 11:26:36;;;;;;;7.80;4.65;;;24.70;33.30;;;;;;5032937;28;20754;-64
2022/04/14 11:29:32;;;;;;;9.07;4.40;;;24.30;34.10;;;;;;5032505;28;20222;-63
2022/04/14 11:32:38;;;;;;;8.00;4.60;;;23.80;34.00;;;;;;5013640;28;20239;-62
2022/04/14 11:35:48;;;;;;;8.90;4.50;;;24.10;34.00;;;;;;5033684;28;20597;-62
2022/04/14 11:39:20;;;;;;;12.55;4.78;;;25.70;33.70;;;;;;5050146;28;20230;-65
2022/04/14 11:42:10;;;;;;;8.65;4.65;;;27.50;32.70;;;;;;4968723;28;20229;-64
2022/04/14 11:45:01;;;;;;;6.93;5.22;;;27.30;31.60;;;;;;4970989;28;21049;-65
2022/04/14 11:47:51;;;;;;;9.10;4.82;;;28.10;30.70;;;;;;5024671;28;20221;-65
2022/04/14 11:50:40;;;;;;;8.43;4.75;;;28.60;30.20;;;;;;5038461;28;20212;-64
2022/04/14 11:53:30;;;;;;;7.75;4.25;;;27.10;31.50;;;;;;5034164;28;20232;-66
2022/04/14 11:56:39;;;;;;;5.93;4.60;;;25.90;32.00;;;;;;5021273;28;20719;-64
2022/04/14 11:59:30;;;;;;;10.15;5.15;;;24.90;33.30;;;;;;5051359;28;20228;-63
2022/04/14 12:02:21;;;;;;;5.60;4.60;;;24.20;34.00;;;;;;5019974;28;20234;-62
2022/04/14 12:05:11;;;;;;;8.23;5.00;;;23.70;34.30;;;;;;5036621;28;20319;-63
2022/04/14 12:08:07;;;;;;;7.63;5.30;;;23.50;35.10;;;;;;5052674;28;20239;-62
2022/04/14 12:10:56;;;;;;;8.35;5.63;;;22.90;35.50;;;;;;5041647;28;20225;-62
2022/04/14 12:13:45;;;;;;;8.85;5.20;;;22.50;36.30;;;;;;5027394;28;20220;-62
2022/04/14 12:16:34;;;;;;;10.13;5.30;;;22.40;37.00;;;;;;5037836;28;20308;-63
2022/04/14 12:19:23;;;;;;;12.40;5.05;;;22.40;37.20;;;;;;5025375;28;20268;-61
2022/04/14 12:22:13;;;;;;;10.23;5.43;;;22.30;36.40;;;;;;5034609;28;20299;-59
2022/04/14 12:25:05;;;;;;;11.15;4.97;;;22.30;36.90;;;;;;5035974;28;20236;-62
2022/04/14 12:27:54;;;;;;;10.35;5.20;;;22.20;37.50;;;;;;5024117;28;20383;-62
2022/04/14 12:30:43;;;;;;;13.23;4.93;;;22.20;37.70;;;;;;5027055;28;20220;-62
2022/04/14 12:33:31;;;;;;;8.68;5.20;;;22.30;38.50;;;;;;5053050;28;20220;-62
2022/04/14 12:36:20;;;;;;;6.93;5.03;;;22.00;37.50;;;;;;5038404;28;20929;-63
2022/04/14 12:39:21;;;;;;;8.63;5.50;;;22.10;37.50;;;;;;5035004;28;20224;-62
2022/04/14 12:42:15;;;;;;;8.30;5.85;;;22.00;37.60;;;;;;5032993;28;20221;-62
2022/04/14 12:45:05;;;;;;;8.70;6.13;;;22.10;37.50;;;;;;5034822;28;20855;-61
2022/04/14 12:47:56;;;;;;;10.40;6.03;;;21.90;38.20;;;;;;5023584;28;20234;-62
2022/04/14 12:50:55;;;;;;;8.75;5.55;;;21.90;38.20;;;;;;5035276;28;20220;-62
2022/04/14 12:53:44;;;;;;;10.27;6.38;;;22.00;38.60;;;;;;5018283;28;20711;-62
2022/04/14 12:56:37;;;;;;;14.07;6.30;;;21.90;39.40;;;;;;5027418;28;20220;-64
2022/04/14 12:59:26;;;;;;;9.63;6.40;;;21.90;39.70;;;;;;5017163;28;20251;-63
2022/04/14 13:02:21;;;;;;;10.98;5.63;;;22.00;39.90;;;;;;5021788;28;20605;-63
2022/04/14 13:05:12;;;;;;;11.68;5.97;;;21.90;40.50;;;;;;5036098;28;20232;-63
2022/04/14 13:08:01;;;;;;;9.05;5.78;;;21.80;40.60;;;;;;5030830;28;20233;-63
2022/04/14 13:10:50;;;;;;;8.45;5.93;;;21.70;40.50;;;;;;5036504;28;20217;-62
2022/04/14 13:13:40;;;;;;;8.82;5.47;;;21.70;41.00;;;;;;5045011;28;20232;-62
2022/04/14 13:16:29;;;;;;;10.38;6.60;;;21.80;41.00;;;;;;5019625;28;20596;-64
2022/04/14 13:19:18;;;;;;;10.88;6.03;;;21.60;41.50;;;;;;5027305;28;20596;-63
2022/04/14 13:22:07;;;;;;;9.88;5.95;;;21.60;41.50;;;;;;5023286;28;20229;-62
2022/04/14 13:24:55;;;;;;;8.85;5.53;;;21.50;41.50;;;;;;5069905;28;20308;-63
2022/04/14 13:27:44;;;;;;;9.68;6.32;;;21.60;41.70;;;;;;5059183;28;20228;-64
2022/04/14 13:30:34;;;;;;;10.35;6.28;;;21.60;41.50;;;;;;5059036;28;20213;-63
2022/04/14 13:33:23;;;;;;;10.48;5.95;;;21.80;41.70;;;;;;5043477;28;20227;-63
2022/04/14 13:36:11;;;;;;;8.75;6.13;;;21.80;42.10;;;;;;5058193;28;20227;-62
2022/04/14 13:39:04;;;;;;;9.48;6.10;;;21.80;42.30;;;;;;5060556;28;20220;-62
2022/04/14 13:41:52;;;;;;;11.82;7.45;;;21.80;42.10;;;;;;5056132;28;20693;-62
2022/04/14 13:44:42;;;;;;;11.30;6.72;;;21.70;42.60;;;;;;5054775;28;20573;-61
2022/04/14 13:47:33;;;;;;;11.82;6.70;;;21.70;42.90;;;;;;5057400;28;20225;-63
2022/04/14 13:50:22;;;;;;;10.40;6.53;;;21.60;42.80;;;;;;5040738;28;20229;-62
2022/04/14 13:53:11;;;;;;;12.95;6.75;;;21.60;43.10;;;;;;5060403;28;20366;-62
2022/04/14 13:55:59;;;;;;;9.25;6.38;;;21.60;43.50;;;;;;5036152;28;20312;-62
2022/04/14 13:58:48;;;;;;;8.52;6.63;;;21.40;43.80;;;;;;5043247;28;20351;-63
2022/04/14 14:01:37;;;;;;;12.00;6.65;;;21.30;44.10;;;;;;5036006;28;20228;-61
2022/04/14 14:04:28;;;;;;;18.33;7.50;;;21.30;44.30;;;;;;5055884;28;20225;-63
2022/04/14 14:07:16;;;;;;;11.23;6.97;;;21.10;44.90;;;;;;5036123;28;20549;-66
2022/04/14 14:10:06;;;;;;;13.90;6.82;;;21.10;44.30;;;;;;5036250;28;20221;-62
2022/04/14 14:12:55;;;;;;;11.13;6.88;;;21.10;44.60;;;;;;5036941;28;20237;-64
2022/04/14 14:15:44;;;;;;;11.45;6.65;;;21.10;45.00;;;;;;5033655;28;20213;-64
2022/04/14 14:18:32;;;;;;;10.93;6.68;;;21.20;45.50;;;;;;5037995;28;20232;-63
2022/04/14 14:21:22;;;;;;;18.30;7.03;;;21.00;45.90;;;;;;5033595;28;20743;-62
2022/04/14 14:24:11;;;;;;;11.35;6.18;;;21.00;46.20;;;;;;5034920;28;20674;-62
2022/04/14 14:26:59;;;;;;;12.98;6.72;;;20.90;46.30;;;;;;5058114;28;20226;-61
2022/04/14 14:29:49;;;;;;;10.93;6.45;;;20.90;46.40;;;;;;5054920;28;20691;-61
2022/04/14 14:32:38;;;;;;;11.68;6.47;;;20.90;46.70;;;;;;5045618;28;20552;-63
2022/04/14 14:35:27;;;;;;;11.02;6.80;;;21.00;46.80;;;;;;5054798;28;20248;-62
2022/04/14 14:38:17;;;;;;;12.20;6.40;;;20.90;46.70;;;;;;5058582;28;20306;-62